Time;durP1;ratioP1;P1;durP2;ratioP2;P2;SDS_P1;SDS_P2;PMS_P1;PMS_P2;Temp;Humidity;BMP_temperature;BMP_pressure;BME280_temperature;BME280_humidity;BME280_pressure;Samples;Min_cycle;Max_cycle;Signal;HPM_P1;HPM_P2
2023/01/06 00:02:17;;;;;;;6.17;3.40;;;;;;;9.67;100.00;101812.75;5093632;28;20537;-37
2023/01/06 00:04:43;;;;;;;8.67;3.70;;;;;;;9.66;100.00;101800.25;5093908;28;20039;-38
2023/01/06 00:07:08;;;;;;;8.10;4.00;;;;;;;9.66;100.00;101794.84;5093962;28;20039;-38
2023/01/06 00:09:33;;;;;;;6.93;4.13;;;;;;;9.73;100.00;101795.72;5094275;28;20035;-38
2023/01/06 00:11:59;;;;;;;8.33;4.50;;;;;;;9.73;100.00;101793.00;5093981;28;20046;-38
2023/01/06 00:14:24;;;;;;;5.10;3.10;;;;;;;9.73;100.00;101791.16;5094174;28;20046;-38
2023/01/06 00:16:49;;;;;;;7.10;3.00;;;;;;;9.72;100.00;101786.78;5093781;28;20032;-38
2023/01/06 00:19:15;;;;;;;8.60;3.10;;;;;;;9.73;100.00;101783.03;5094361;28;20265;-38
2023/01/06 00:21:41;;;;;;;8.03;3.40;;;;;;;9.71;100.00;101787.81;5093362;28;20281;-38
2023/01/06 00:24:08;;;;;;;6.07;3.53;;;;;;;9.71;100.00;101774.31;5094253;28;20333;-38
2023/01/06 00:26:33;;;;;;;6.03;3.20;;;;;;;9.74;100.00;101783.88;5093595;28;20024;-37
2023/01/06 00:28:58;;;;;;;6.73;3.40;;;;;;;9.72;100.00;101784.09;5093715;28;20039;-37
2023/01/06 00:31:24;;;;;;;6.10;2.43;;;;;;;9.77;100.00;101789.72;5093582;28;20062;-38
2023/01/06 00:33:49;;;;;;;5.27;2.73;;;;;;;9.76;100.00;101784.50;5093898;28;20254;-38
2023/01/06 00:36:15;;;;;;;6.60;3.22;;;;;;;9.70;100.00;101769.09;5093646;28;20056;-37
2023/01/06 00:38:41;;;;;;;6.57;2.30;;;;;;;9.76;100.00;101787.19;5093290;28;20039;-38
2023/01/06 00:43:56;;;;;;;4.97;2.70;;;;;;;9.77;100.00;101780.78;5093550;28;20043;-38
2023/01/06 00:46:22;;;;;;;7.05;3.38;;;;;;;9.73;100.00;101766.00;5094219;28;20040;-38
2023/01/06 00:48:47;;;;;;;5.90;3.20;;;;;;;9.77;100.00;101775.38;5094318;28;20085;-37
2023/01/06 00:51:13;;;;;;;3.33;2.50;;;;;;;9.79;100.00;101763.31;5093610;28;20084;-37
2023/01/06 00:53:38;;;;;;;5.77;2.30;;;;;;;9.72;100.00;101767.88;5093961;28;20302;-38
2023/01/06 00:56:03;;;;;;;4.63;2.10;;;;;;;9.80;100.00;101770.38;5093387;28;20035;-38
2023/01/06 00:58:32;;;;;;;5.32;1.90;;;;;;;9.79;100.00;101770.59;5093943;28;20024;-38
2023/01/06 01:00:58;;;;;;;4.43;1.75;;;;;;;9.83;100.00;101773.72;5093643;28;20031;-37
2023/01/06 01:03:23;;;;;;;7.10;2.38;;;;;;;9.81;100.00;101779.34;5093078;28;20036;-37
2023/01/06 01:05:49;;;;;;;4.07;1.80;;;;;;;9.83;100.00;101768.31;5093301;28;20028;-37
2023/01/06 01:08:14;;;;;;;4.43;1.90;;;;;;;9.84;100.00;101770.81;5093796;28;20036;-37
2023/01/06 01:10:40;;;;;;;5.95;2.13;;;;;;;9.71;100.00;101746.44;5093161;28;20285;-37
2023/01/06 01:13:05;;;;;;;3.20;1.63;;;;;;;9.81;100.00;101771.25;5093605;28;20031;-37
2023/01/06 01:15:30;;;;;;;5.53;1.90;;;;;;;9.82;100.00;101772.06;5093472;28;20476;-38
2023/01/06 01:17:56;;;;;;;4.00;1.92;;;;;;;9.79;100.00;101767.88;5093227;28;20464;-37
2023/01/06 01:20:22;;;;;;;7.20;2.27;;;;;;;9.79;100.00;101766.00;5094798;28;20032;-37
2023/01/06 01:22:47;;;;;;;3.25;1.63;;;;;;;9.80;100.00;101772.25;5097232;28;20397;-37
2023/01/06 01:25:13;;;;;;;5.00;2.40;;;;;;;9.82;100.00;101775.59;5078734;28;20044;-38
2023/01/06 01:27:38;;;;;;;4.53;1.80;;;;;;;9.74;100.00;101757.69;5078928;28;20036;-38
2023/01/06 01:30:04;;;;;;;3.47;2.03;;;;;;;9.79;100.00;101776.00;5097575;28;20258;-37
2023/01/06 01:32:29;;;;;;;;;;;;;;;9.83;100.00;101771.84;5097139;28;20030;-37
2023/01/06 01:34:55;;;;;;;6.03;2.33;;;;;;;9.81;100.00;101757.72;5096963;28;20319;-38
2023/01/06 01:37:20;;;;;;;3.87;1.97;;;;;;;9.62;100.00;101726.91;5097027;28;20028;-37
2023/01/06 01:39:46;;;;;;;4.43;2.17;;;;;;;9.76;100.00;101739.44;5096661;28;20020;-37
2023/01/06 01:42:16;;;;;;;5.20;1.90;;;;;;;9.83;100.00;101746.72;5096514;28;20024;-37
2023/01/06 01:45:03;;;;;;;3.80;1.90;;;;;;;9.81;100.00;101733.41;5096535;28;20032;-37
2023/01/06 01:48:04;;;;;;;4.40;1.75;;;;;;;9.75;100.00;101724.22;5097080;28;20024;-37
2023/01/06 01:50:43;;;;;;;3.50;1.95;;;;;;;9.83;100.00;101741.31;5096351;28;20056;-37
2023/01/06 01:53:21;;;;;;;4.97;1.92;;;;;;;9.83;100.00;101744.00;5096617;28;20043;-37
2023/01/06 01:55:49;;;;;;;7.63;2.08;;;;;;;9.76;100.00;101725.06;5096397;28;20035;-38
2023/01/06 01:58:23;;;;;;;5.85;1.73;;;;;;;9.76;100.00;101731.31;5096803;28;20028;-37
2023/01/06 02:00:50;;;;;;;4.53;1.60;;;;;;;9.79;100.00;101744.41;5097050;28;20098;-37
2023/01/06 02:03:18;;;;;;;4.60;1.30;;;;;;;9.79;100.00;101740.88;5096696;28;20081;-38
2023/01/06 02:05:48;;;;;;;4.80;1.63;;;;;;;9.72;100.00;101721.13;5096123;28;20055;-37
2023/01/06 02:08:38;;;;;;;4.18;1.52;;;;;;;9.80;100.00;101737.97;5096625;28;20060;-37
2023/01/06 02:11:04;;;;;;;3.47;1.50;;;;;;;9.80;100.00;101737.13;5095582;28;20051;-38
2023/01/06 02:13:32;;;;;;;3.85;1.38;;;;;;;9.77;100.00;101734.84;5096057;28;20117;-38
2023/01/06 02:16:19;;;;;;;5.40;1.88;;;;;;;9.79;100.00;101744.41;5095635;28;20404;-38
2023/01/06 02:19:02;;;;;;;2.55;1.35;;;;;;;9.79;100.00;101735.47;5096164;28;20031;-38
2023/01/06 02:21:45;;;;;;;4.95;1.63;;;;;;;9.71;100.00;101714.03;5095846;28;20035;-38
2023/01/06 02:24:35;;;;;;;3.17;1.30;;;;;;;9.78;100.00;101731.13;5096265;28;20111;-39
2023/01/06 02:27:18;;;;;;;4.03;1.40;;;;;;;9.77;100.00;101724.88;5096059;28;20032;-38
2023/01/06 02:30:04;;;;;;;5.78;1.60;;;;;;;9.74;100.00;101713.66;5096258;28;20028;-39
2023/01/06 02:32:46;;;;;;;4.18;1.63;;;;;;;9.77;100.00;101715.94;5095657;28;20034;-39
2023/01/06 02:35:33;;;;;;;3.22;1.10;;;;;;;9.75;100.00;101709.91;5095402;28;20580;-39
2023/01/06 02:38:13;;;;;;;3.22;1.25;;;;;;;9.70;100.00;101701.59;5095871;28;20024;-39
2023/01/06 02:41:03;;;;;;;3.30;1.20;;;;;;;9.74;100.00;101709.06;5095726;28;20120;-39
2023/01/06 02:43:35;;;;;;;4.50;1.17;;;;;;;9.71;100.00;101700.53;5095645;28;20453;-39
2023/01/06 02:46:17;;;;;;;4.00;1.20;;;;;;;9.64;100.00;101680.81;5095648;28;20035;-39
2023/01/06 02:48:50;;;;;;;4.40;0.90;;;;;;;9.67;100.00;101680.41;5096169;28;20465;-39
2023/01/06 02:51:40;;;;;;;2.25;1.15;;;;;;;9.73;100.00;101682.28;5095544;28;20031;-39
2023/01/06 02:54:18;;;;;;;4.18;1.27;;;;;;;9.70;100.00;101682.69;5095704;28;20040;-39
2023/01/06 02:56:49;;;;;;;3.78;1.23;;;;;;;9.72;100.00;101677.91;5095945;28;20441;-39
2023/01/06 02:59:33;;;;;;;2.95;1.20;;;;;;;9.71;100.00;101682.50;5095110;28;20035;-39
2023/01/06 03:02:00;;;;;;;3.33;0.90;;;;;;;9.72;100.00;101678.75;5095080;28;20490;-39
2023/01/06 03:04:31;;;;;;;3.47;1.15;;;;;;;9.66;100.00;101663.38;5095023;28;20073;-39
2023/01/06 03:07:01;;;;;;;2.25;1.00;;;;;;;9.73;100.00;101668.78;5094953;28;20038;-39
2023/01/06 03:09:32;;;;;;;2.72;0.80;;;;;;;9.67;100.00;101661.50;5094612;28;20027;-39
2023/01/06 03:12:00;;;;;;;2.67;0.90;;;;;;;9.75;100.00;101680.19;5094553;28;20491;-39
2023/01/06 03:14:34;;;;;;;2.67;1.00;;;;;;;9.72;100.00;101657.13;5095602;28;20354;-39
2023/01/06 03:17:00;;;;;;;5.65;1.25;;;;;;;9.74;100.00;101659.63;5094644;28;20024;-39
2023/01/06 03:19:26;;;;;;;;;;;;;;;9.80;100.00;101664.19;5095192;28;20063;-39
2023/01/06 03:21:53;;;;;;;2.90;0.90;;;;;;;9.77;100.00;101659.22;5094878;28;19935;-38
2023/01/06 03:24:18;;;;;;;2.85;1.00;;;;;;;9.77;100.00;101648.41;5094856;28;20111;-38
2023/01/06 03:26:46;;;;;;;3.45;0.70;;;;;;;9.69;100.00;101635.94;5094709;28;20107;-38
2023/01/06 03:29:14;;;;;;;4.80;1.00;;;;;;;9.76;100.00;101654.84;5094708;28;20035;-38
2023/01/06 03:31:59;;;;;;;4.18;1.00;;;;;;;9.77;100.00;101661.94;5093975;28;20020;-37
2023/01/06 03:34:53;;;;;;;2.05;0.82;;;;;;;9.78;100.00;101647.38;5093649;28;20048;-36
2023/01/06 03:37:25;;;;;;;6.22;1.17;;;;;;;9.77;100.00;101643.03;5094853;28;20082;-37
2023/01/06 03:40:02;;;;;;;4.40;1.17;;;;;;;9.77;100.00;101633.03;5094730;28;20028;-37
2023/01/06 03:45:39;;;;;;;4.40;0.90;;;;;;;9.81;100.00;101628.06;5094017;28;20089;-36
2023/01/06 03:48:28;;;;;;;3.13;1.27;;;;;;;9.82;100.00;101643.22;5094743;28;20024;-37
2023/01/06 03:51:06;;;;;;;4.00;1.10;;;;;;;9.78;100.00;101634.69;5094892;28;20373;-36
2023/01/06 03:53:40;;;;;;;3.60;1.00;;;;;;;9.80;100.00;101634.47;5094706;28;20106;-37
2023/01/06 03:56:20;;;;;;;3.75;1.15;;;;;;;9.82;100.00;101623.50;5094360;28;20383;-37
2023/01/06 03:58:50;;;;;;;4.47;1.00;;;;;;;9.83;100.00;101627.84;5094857;28;20023;-37
2023/01/06 04:01:15;;;;;;;2.92;0.80;;;;;;;9.85;100.00;101633.88;5094306;28;20034;-37
2023/01/06 04:03:45;;;;;;;4.63;1.02;;;;;;;9.85;100.00;101623.88;5093654;28;20488;-37
2023/01/06 04:06:10;;;;;;;2.92;1.27;;;;;;;9.85;100.00;101629.28;5093825;28;20028;-37
2023/01/06 04:08:36;;;;;;;2.80;1.00;;;;;;;9.86;100.00;101622.88;5093853;28;20034;-37
2023/01/06 04:11:02;;;;;;;2.50;0.90;;;;;;;9.83;100.00;101614.34;5093609;28;20116;-37
2023/01/06 04:13:27;;;;;;;;;;;;;;;9.89;100.00;101613.50;5094614;28;20055;-37
2023/01/06 04:15:52;;;;;;;3.43;1.13;;;;;;;9.79;100.00;101598.53;5093513;28;19930;-37
2023/01/06 04:18:18;;;;;;;4.13;1.00;;;;;;;9.88;100.00;101603.75;5094099;28;20614;-37
2023/01/06 04:20:43;;;;;;;1.67;0.90;;;;;;;9.82;100.00;101591.09;5093730;28;20073;-37
2023/01/06 04:23:08;;;;;;;3.27;0.80;;;;;;;9.82;100.00;101582.97;5094293;28;20019;-37
2023/01/06 04:25:34;;;;;;;4.30;1.30;;;;;;;9.86;100.00;101590.47;5093666;28;20032;-37
2023/01/06 04:27:59;;;;;;;4.30;1.10;;;;;;;9.88;100.00;101585.66;5093711;28;20510;-37
2023/01/06 04:30:24;;;;;;;3.58;1.38;;;;;;;9.88;100.00;101584.84;5093591;28;20028;-37
2023/01/06 04:32:50;;;;;;;3.73;1.30;;;;;;;9.77;100.00;101560.13;5093600;28;20499;-37
2023/01/06 04:35:15;;;;;;;2.90;1.20;;;;;;;9.86;100.00;101562.59;5093806;28;20492;-37
2023/01/06 04:37:41;;;;;;;3.08;1.00;;;;;;;9.90;100.00;101571.94;5093378;28;20074;-37
2023/01/06 04:40:06;;;;;;;3.33;0.80;;;;;;;9.85;100.00;101553.66;5093190;28;20111;-37
2023/01/06 04:43:03;;;;;;;3.15;0.80;;;;;;;9.91;100.00;101555.53;5093575;28;20052;-37
2023/01/06 04:45:17;;;;;;;1.98;0.77;;;;;;;9.91;100.00;101557.41;5093087;28;20519;-37
2023/01/06 04:47:43;;;;;;;2.90;0.87;;;;;;;9.91;100.00;101563.66;5094060;28;20068;-37
2023/01/06 04:50:09;;;;;;;2.53;0.80;;;;;;;9.82;100.00;101548.69;5093991;28;20047;-37
2023/01/06 04:52:34;;;;;;;3.08;0.82;;;;;;;9.90;100.00;101561.97;5094238;28;20035;-37
2023/01/06 04:55:00;;;;;;;2.03;1.00;;;;;;;9.87;100.00;101545.38;5094623;28;20024;-37
2023/01/06 04:57:25;;;;;;;2.87;1.00;;;;;;;9.91;100.00;101552.00;5097734;28;20020;-37
2023/01/06 04:59:50;;;;;;;2.73;0.80;;;;;;;9.92;100.00;101557.19;5097209;28;20484;-37
2023/01/06 05:02:16;;;;;;;3.63;0.80;;;;;;;9.87;100.00;101553.47;5097364;28;20032;-37
2023/01/06 05:04:41;;;;;;;4.47;0.90;;;;;;;9.87;100.00;101537.25;5097596;28;20028;-37
2023/01/06 05:07:06;;;;;;;3.77;0.70;;;;;;;9.92;100.00;101542.88;5097628;28;20024;-37
2023/01/06 05:09:32;;;;;;;1.80;0.80;;;;;;;9.87;100.00;101526.44;5097297;28;20059;-37
2023/01/06 05:11:57;;;;;;;0.87;0.57;;;;;;;9.96;100.00;101538.72;5096691;28;20032;-37
2023/01/06 05:14:22;;;;;;;1.40;0.60;;;;;;;9.94;100.00;101546.16;5097136;28;20071;-37
2023/01/06 05:16:47;;;;;;;2.20;0.80;;;;;;;9.93;100.00;101533.72;5096818;28;20114;-37
2023/01/06 05:19:13;;;;;;;2.17;0.60;;;;;;;9.85;100.00;101521.25;5097579;28;20162;-37
2023/01/06 05:21:38;;;;;;;1.20;0.50;;;;;;;9.91;100.00;101533.94;5097235;28;20028;-37
2023/01/06 05:24:04;;;;;;;1.23;0.60;;;;;;;9.89;100.00;101527.06;5097056;28;20024;-37
2023/01/06 05:26:29;;;;;;;2.33;0.65;;;;;;;9.89;100.00;101530.59;5096908;28;20031;-37
2023/01/06 05:28:55;;;;;;;1.13;0.60;;;;;;;9.85;100.00;101521.25;5097198;28;20028;-37
2023/01/06 05:31:20;;;;;;;1.15;0.60;;;;;;;9.85;100.00;101526.63;5096277;28;20357;-37
2023/01/06 05:33:46;;;;;;;2.53;0.70;;;;;;;9.92;100.00;101530.19;5096894;28;20073;-37
2023/01/06 05:36:14;;;;;;;3.50;0.77;;;;;;;9.88;100.00;101520.00;5097653;28;20126;-37
2023/01/06 05:38:40;;;;;;;1.92;0.60;;;;;;;9.96;100.00;101538.72;5097378;28;20047;-37
2023/01/06 05:41:05;;;;;;;2.00;0.70;;;;;;;9.96;100.00;101539.53;5096548;28;20028;-37
2023/01/06 05:43:33;;;;;;;2.58;1.25;;;;;;;9.96;100.00;101539.53;5097176;28;20093;-37
2023/01/06 05:45:59;;;;;;;1.60;0.60;;;;;;;9.93;100.00;101545.34;5096517;28;20387;-37
2023/01/06 05:48:26;;;;;;;2.95;0.60;;;;;;;9.94;100.00;101536.19;5096802;28;20032;-37
2023/01/06 05:50:51;;;;;;;2.85;0.52;;;;;;;9.94;100.00;101536.19;5096058;28;20060;-37
2023/01/06 05:53:17;;;;;;;1.65;0.60;;;;;;;9.94;100.00;101530.78;5096466;28;20059;-37
2023/01/06 05:55:42;;;;;;;3.00;0.85;;;;;;;9.94;100.00;101535.38;5096891;28;20055;-37
2023/01/06 05:58:08;;;;;;;1.87;0.50;;;;;;;9.93;100.00;101521.03;5097165;28;20059;-37
2023/01/06 06:00:33;;;;;;;1.80;0.70;;;;;;;9.94;100.00;101544.28;5096524;28;20066;-37
2023/01/06 06:02:58;;;;;;;2.33;0.70;;;;;;;9.97;100.00;101540.38;5096002;28;20480;-37
2023/01/06 06:05:24;;;;;;;4.33;0.83;;;;;;;9.86;100.00;101530.16;5095755;28;20026;-37
2023/01/06 06:07:53;;;;;;;2.47;0.77;;;;;;;9.98;100.00;101542.00;5096206;28;20032;-37
2023/01/06 06:10:18;;;;;;;1.20;0.50;;;;;;;9.97;100.00;101545.75;5095988;28;20028;-37
2023/01/06 06:12:44;;;;;;;1.63;0.80;;;;;;;9.93;100.00;101556.16;5095784;28;20039;-37
2023/01/06 06:15:09;;;;;;;2.47;0.77;;;;;;;9.91;100.00;101542.03;5095753;28;20020;-37
2023/01/06 06:17:34;;;;;;;3.87;0.70;;;;;;;9.84;100.00;101543.91;5095982;28;20375;-37
2023/01/06 06:20:00;;;;;;;1.70;0.80;;;;;;;9.88;100.00;101555.94;5096675;28;20270;-37
2023/01/06 06:22:25;;;;;;;1.33;0.70;;;;;;;9.87;100.00;101550.75;5095832;28;20107;-37
2023/01/06 06:24:50;;;;;;;2.93;0.70;;;;;;;9.84;100.00;101538.50;5095837;28;20055;-37
2023/01/06 06:27:16;;;;;;;2.37;0.80;;;;;;;9.85;100.00;101536.63;5095470;28;20030;-37
2023/01/06 06:29:41;;;;;;;4.60;0.90;;;;;;;9.85;100.00;101550.13;5096367;28;20028;-37
2023/01/06 06:32:06;;;;;;;1.37;0.70;;;;;;;9.86;100.00;101546.38;5095339;28;20050;-37
2023/01/06 06:34:32;;;;;;;3.57;0.80;;;;;;;9.77;100.00;101525.00;5095521;28;20059;-37
2023/01/06 06:36:57;;;;;;;3.60;0.87;;;;;;;9.82;100.00;101531.66;5095933;28;20044;-37
2023/01/06 06:39:22;;;;;;;2.63;0.67;;;;;;;9.82;100.00;101534.34;5095535;28;20028;-37
2023/01/06 06:41:48;;;;;;;1.13;0.60;;;;;;;9.86;100.00;101531.03;5095541;28;20092;-37
2023/01/06 06:44:13;;;;;;;1.70;0.70;;;;;;;9.88;100.00;101542.44;5096067;28;20077;-37
2023/01/06 06:46:38;;;;;;;2.07;0.87;;;;;;;9.88;100.00;101545.16;5095895;28;20036;-37
2023/01/06 06:49:03;;;;;;;1.40;0.70;;;;;;;9.87;100.00;101542.66;5095410;28;20101;-37
2023/01/06 06:51:30;;;;;;;2.50;0.80;;;;;;;9.80;100.00;101529.13;5095978;28;20059;-37
2023/01/06 06:53:55;;;;;;;3.38;0.98;;;;;;;9.84;100.00;101533.09;5095232;28;20024;-37
2023/01/06 06:56:21;;;;;;;2.20;0.63;;;;;;;9.83;100.00;101547.66;5094805;28;20156;-37
2023/01/06 06:58:46;;;;;;;3.10;1.17;;;;;;;9.82;100.00;101554.09;5095467;28;20017;-37
2023/01/06 07:01:17;;;;;;;1.57;0.77;;;;;;;9.77;100.00;101553.88;5095067;28;20040;-37
2023/01/06 07:03:43;;;;;;;1.55;0.80;;;;;;;9.76;100.00;101554.91;5095593;28;20028;-37
2023/01/06 07:06:13;;;;;;;4.00;1.00;;;;;;;9.76;100.00;101561.16;5094723;28;20113;-37
2023/01/06 07:08:41;;;;;;;1.92;0.80;;;;;;;9.73;100.00;101575.06;5095016;28;20491;-37
2023/01/06 07:11:07;;;;;;;3.90;1.08;;;;;;;9.68;100.00;101552.44;5095272;28;20028;-37
2023/01/06 07:13:32;;;;;;;1.90;0.90;;;;;;;9.74;100.00;101559.69;5094891;28;20445;-37
2023/01/06 07:15:57;;;;;;;1.63;0.70;;;;;;;9.73;100.00;101576.94;5094774;28;20055;-37
2023/01/06 07:18:23;;;;;;;3.07;1.33;;;;;;;9.64;100.00;101561.97;5093998;28;20059;-37
2023/01/06 07:20:52;;;;;;;1.70;1.10;;;;;;;9.65;100.00;101571.72;5094745;28;20034;-37
2023/01/06 07:23:18;;;;;;;2.58;0.80;;;;;;;9.62;100.00;101566.78;5094686;28;20028;-37
2023/01/06 07:25:43;;;;;;;4.20;1.73;;;;;;;9.59;100.00;101564.47;5094627;28;20039;-37
2023/01/06 07:28:08;;;;;;;2.17;1.00;;;;;;;9.59;100.00;101564.47;5095443;28;20037;-38
2023/01/06 07:30:34;;;;;;;2.27;1.10;;;;;;;9.51;100.00;101557.38;5094446;28;20111;-37
2023/01/06 07:33:00;;;;;;;3.17;1.25;;;;;;;9.47;100.00;101572.38;5094845;28;20024;-37
2023/01/06 07:35:25;;;;;;;2.50;1.03;;;;;;;9.45;100.00;101572.56;5094377;28;20051;-37
2023/01/06 07:37:50;;;;;;;2.63;1.10;;;;;;;9.46;100.00;101581.47;5094719;28;20473;-37
2023/01/06 07:40:17;;;;;;;2.60;1.47;;;;;;;9.40;100.00;101564.25;5094401;28;20028;-37
2023/01/06 07:42:43;;;;;;;2.65;1.20;;;;;;;9.43;100.00;101571.94;5094332;28;20063;-37
2023/01/06 07:45:09;;;;;;;2.40;1.10;;;;;;;9.44;100.00;101578.16;5094031;28;20060;-37
2023/01/06 07:47:34;;;;;;;2.28;1.25;;;;;;;9.44;100.00;101573.59;5094575;28;20453;-37
2023/01/06 07:50:00;;;;;;;1.77;1.20;;;;;;;9.42;100.00;101580.22;5094518;28;20024;-37
2023/01/06 07:52:25;;;;;;;3.27;1.13;;;;;;;9.43;100.00;101571.09;5094426;28;20031;-37
2023/01/06 07:54:50;;;;;;;2.27;1.50;;;;;;;9.48;100.00;101585.66;5094446;28;20077;-37
2023/01/06 07:57:15;;;;;;;2.77;1.53;;;;;;;9.49;100.00;101602.69;5093846;28;20082;-37
2023/01/06 07:59:41;;;;;;;3.33;1.40;;;;;;;9.49;100.00;101598.09;5094337;28;20027;-37
2023/01/06 08:02:09;;;;;;;3.67;1.33;;;;;;;9.48;100.00;101604.53;5094083;28;20024;-37
2023/01/06 08:04:34;;;;;;;2.03;1.30;;;;;;;9.50;100.00;101613.25;5094463;28;20028;-37
2023/01/06 08:07:00;;;;;;;3.97;1.80;;;;;;;9.37;100.00;101588.97;5093982;28;20043;-37
2023/01/06 08:09:25;;;;;;;2.88;1.50;;;;;;;9.48;100.00;101615.34;5094217;28;20050;-37
2023/01/06 08:11:50;;;;;;;3.87;2.30;;;;;;;9.47;100.00;101618.25;5093770;28;20067;-37
2023/01/06 08:14:16;;;;;;;5.00;2.50;;;;;;;9.51;100.00;101620.31;5094480;28;20414;-37
2023/01/06 08:16:41;;;;;;;3.47;2.00;;;;;;;9.53;100.00;101626.38;5093818;28;20031;-37
2023/01/06 08:19:06;;;;;;;2.23;1.70;;;;;;;9.54;100.00;101630.72;5094145;28;20051;-37
2023/01/06 08:21:32;;;;;;;3.67;2.40;;;;;;;9.51;100.00;101614.91;5093469;28;20467;-37
2023/01/06 08:23:57;;;;;;;3.37;2.63;;;;;;;9.54;100.00;101619.91;5094624;28;20036;-37
2023/01/06 08:26:23;;;;;;;2.60;2.13;;;;;;;9.57;100.00;101618.69;5093698;28;20086;-37
2023/01/06 08:28:48;;;;;;;2.28;1.80;;;;;;;9.66;100.00;101628.25;5093971;28;20111;-37
2023/01/06 08:31:18;;;;;;;4.28;2.40;;;;;;;9.68;100.00;101634.28;5093645;28;20020;-37
2023/01/06 08:33:44;;;;;;;6.25;4.80;;;;;;;9.65;100.00;101636.56;5093608;28;20103;-37
2023/01/06 08:36:17;;;;;;;5.90;4.22;;;;;;;9.72;100.00;101645.50;5094081;28;20047;-37
2023/01/06 08:38:43;;;;;;;6.70;4.32;;;;;;;9.73;100.00;101656.09;5075769;28;20100;-37
2023/01/06 08:41:08;;;;;;;4.30;2.70;;;;;;;9.76;100.00;101671.03;5094389;28;20032;-37
2023/01/06 08:43:34;;;;;;;3.25;2.95;;;;;;;9.78;100.00;101672.53;5093536;28;20376;-37
2023/01/06 08:46:02;;;;;;;2.97;2.70;;;;;;;9.81;100.00;101676.69;5093260;28;20107;-37
2023/01/06 08:48:28;;;;;;;3.10;2.80;;;;;;;9.84;100.00;101675.44;5094131;28;20036;-37
2023/01/06 08:50:55;;;;;;;4.25;2.63;;;;;;;9.86;100.00;101676.91;5093670;28;20440;-37
2023/01/06 08:53:21;;;;;;;3.05;2.80;;;;;;;9.88;100.00;101677.53;5093735;28;20043;-37
2023/01/06 08:55:46;;;;;;;5.30;3.30;;;;;;;9.89;100.00;101675.66;5093196;28;20020;-37
2023/01/06 08:58:11;;;;;;;3.00;2.70;;;;;;;9.90;100.00;101686.25;5093704;28;20070;-37
2023/01/06 09:00:39;;;;;;;3.27;2.97;;;;;;;9.91;100.00;101687.94;5093747;28;20459;-37
2023/01/06 09:03:05;;;;;;;3.03;2.70;;;;;;;9.93;100.00;101691.25;5093432;28;20103;-37
2023/01/06 09:05:30;;;;;;;3.80;2.73;;;;;;;9.96;100.00;101690.00;5093393;28;20123;-37
2023/01/06 09:07:55;;;;;;;3.33;2.73;;;;;;;9.97;100.00;101694.38;5093631;28;20274;-37
2023/01/06 09:10:21;;;;;;;3.50;3.20;;;;;;;9.91;100.00;101676.28;5092991;28;20032;-37
2023/01/06 09:12:47;;;;;;;3.25;2.95;;;;;;;9.95;100.00;101686.44;5093006;28;20047;-37
2023/01/06 09:15:12;;;;;;;;;;;;;;;10.05;100.00;101695.00;5093929;28;20024;-37
2023/01/06 09:17:37;;;;;;;4.10;2.90;;;;;;;10.02;100.00;101695.41;5093850;28;19908;-37
2023/01/06 09:20:03;;;;;;;3.30;3.00;;;;;;;9.98;100.00;101685.22;5092942;28;20032;-37
2023/01/06 09:22:29;;;;;;;3.67;3.10;;;;;;;10.10;100.00;101701.63;5093157;28;20758;-37
2023/01/06 09:24:55;;;;;;;4.90;3.50;;;;;;;10.19;100.00;101708.50;5093802;28;20054;-37
2023/01/06 09:27:20;;;;;;;3.87;3.50;;;;;;;10.29;100.00;101714.38;5093142;28;20099;-37
2023/01/06 09:29:45;;;;;;;3.27;2.87;;;;;;;10.32;100.00;101719.38;5093427;28;20036;-37
2023/01/06 09:32:11;;;;;;;3.77;3.10;;;;;;;10.35;100.00;101721.66;5092806;28;20036;-37
2023/01/06 09:34:36;;;;;;;4.33;3.63;;;;;;;10.36;100.00;101722.50;5093383;28;20084;-37
2023/01/06 09:37:01;;;;;;;3.27;2.97;;;;;;;10.35;100.00;101732.47;5093648;28;20107;-37
2023/01/06 09:39:27;;;;;;;6.07;3.30;;;;;;;10.33;100.00;101739.94;5093116;28;20024;-37
2023/01/06 09:41:58;;;;;;;3.30;3.00;;;;;;;10.33;100.00;101745.34;5094879;28;20406;-37
2023/01/06 09:44:30;;;;;;;5.40;2.95;;;;;;;10.33;100.00;101739.94;5096684;28;20020;-37
2023/01/06 09:46:57;;;;;;;4.10;2.90;;;;;;;10.34;100.00;101741.59;5096816;28;20490;-37
2023/01/06 09:49:37;;;;;;;5.00;3.10;;;;;;;10.33;100.00;101748.06;5096903;28;20081;-37
2023/01/06 09:52:11;;;;;;;4.32;2.80;;;;;;;10.32;100.00;101754.50;5096762;28;20085;-37
2023/01/06 09:54:42;;;;;;;5.38;3.40;;;;;;;10.34;100.00;101765.94;5096764;28;20043;-37
2023/01/06 09:57:27;;;;;;;6.40;3.25;;;;;;;10.39;100.00;101766.16;5096147;28;20469;-37
2023/01/06 09:59:58;;;;;;;5.78;3.45;;;;;;;10.38;100.00;101766.38;5096843;28;20024;-37
2023/01/06 10:02:35;;;;;;;5.00;3.38;;;;;;;10.42;100.00;101763.03;5096038;28;20127;-37
2023/01/06 10:05:02;;;;;;;4.93;3.28;;;;;;;10.37;100.00;101753.88;5096281;28;20032;-37
2023/01/06 10:07:40;;;;;;;7.80;3.42;;;;;;;10.40;100.00;101757.03;5096177;28;20024;-37
2023/01/06 10:10:42;;;;;;;8.43;3.10;;;;;;;10.52;100.00;101770.75;5096696;28;20058;-37
2023/01/06 10:13:29;;;;;;;4.75;2.70;;;;;;;10.68;100.00;101769.47;5096153;28;20028;-37
2023/01/06 10:16:21;;;;;;;6.25;2.67;;;;;;;10.77;100.00;101765.53;5096098;28;20029;-37
2023/01/06 10:19:40;;;;;;;4.85;2.40;;;;;;;10.94;100.00;101772.16;5082168;28;20400;-37
2023/01/06 10:22:16;;;;;;;;;;;;;;;11.05;100.00;101760.69;5014166;28;20037;-37
2023/01/06 10:25:09;;;;;;;4.53;2.47;;;;;;;11.05;100.00;101757.16;5013827;28;19913;-37
2023/01/06 10:27:38;;;;;;;7.32;2.38;;;;;;;11.11;100.00;101760.88;5014149;28;20371;-37
2023/01/06 10:30:16;;;;;;;4.32;2.30;;;;;;;11.17;100.00;101762.72;5013660;28;20041;-37
2023/01/06 10:32:44;;;;;;;7.35;2.00;;;;;;;11.08;100.00;101762.97;5013470;28;20034;-37
2023/01/06 10:35:13;;;;;;;6.07;2.22;;;;;;;11.03;100.00;101746.56;5013316;28;20049;-37
2023/01/06 10:37:41;;;;;;;5.45;2.13;;;;;;;11.01;100.00;101755.91;5013440;28;20414;-37
2023/01/06 10:40:35;;;;;;;4.05;1.50;;;;;;;11.07;100.00;101764.00;5013379;28;20566;-38
2023/01/06 10:43:05;;;;;;;4.03;1.42;;;;;;;11.03;100.00;101760.09;5011739;28;20042;-38
2023/01/06 10:45:45;;;;;;;4.40;1.50;;;;;;;11.04;100.00;101766.31;5013459;28;20025;-38
2023/01/06 10:48:20;;;;;;;5.70;1.70;;;;;;;11.07;100.00;101772.13;5013840;28;20033;-38
2023/01/06 10:50:46;;;;;;;7.53;1.60;;;;;;;11.09;100.00;101775.47;5013609;28;20029;-37
2023/01/06 10:53:13;;;;;;;3.92;1.75;;;;;;;11.12;100.00;101770.66;5011929;28;20584;-37
2023/01/06 10:55:56;;;;;;;5.85;1.50;;;;;;;11.18;100.00;101767.13;5050144;28;20043;-38
2023/01/06 10:58:46;;;;;;;5.82;1.70;;;;;;;11.05;100.00;101759.84;5095786;28;20051;-37
2023/01/06 11:01:15;;;;;;;4.93;1.65;;;;;;;11.13;100.00;101767.75;5095753;28;20056;-38
2023/01/06 11:03:41;;;;;;;4.03;1.30;;;;;;;11.13;100.00;101769.63;5095057;28;20051;-38
2023/01/06 11:06:22;;;;;;;4.82;1.67;;;;;;;11.04;100.00;101763.63;5095661;28;20032;-37
2023/01/06 11:08:47;;;;;;;5.38;1.40;;;;;;;11.00;100.00;101784.84;5095054;28;20535;-38
2023/01/06 11:11:15;;;;;;;4.68;1.40;;;;;;;10.91;100.00;101769.03;5095483;28;20114;-38
2023/01/06 11:13:45;;;;;;;5.43;1.25;;;;;;;10.97;100.00;101771.72;5095789;28;20376;-38
2023/01/06 11:16:21;;;;;;;7.25;2.20;;;;;;;10.87;100.00;101762.38;5095148;28;20480;-38
2023/01/06 11:18:55;;;;;;;4.95;1.50;;;;;;;10.91;100.00;101769.88;5095372;28;20111;-38
2023/01/06 11:21:21;;;;;;;6.40;2.20;;;;;;;10.83;100.00;101759.25;5094832;28;20085;-38
2023/01/06 11:23:47;;;;;;;6.88;1.75;;;;;;;10.83;100.00;101768.25;5095090;28;20032;-38
2023/01/06 11:26:18;;;;;;;4.38;1.40;;;;;;;10.75;100.00;101756.78;5094724;28;20357;-38
2023/01/06 11:28:46;;;;;;;8.18;2.10;;;;;;;10.78;100.00;101761.78;5095435;28;20380;-38
2023/01/06 11:31:22;;;;;;;8.98;1.88;;;;;;;10.73;100.00;101756.97;5094513;28;20038;-38
2023/01/06 11:33:59;;;;;;;9.03;2.03;;;;;;;10.82;100.00;101763.84;5095410;28;20457;-38
2023/01/06 11:36:27;;;;;;;7.97;2.33;;;;;;;10.89;100.00;101766.56;5095007;28;20039;-38
2023/01/06 11:39:11;;;;;;;6.70;1.90;;;;;;;10.94;100.00;101758.63;5094427;28;20036;-38
2023/01/06 11:41:39;;;;;;;6.30;1.70;;;;;;;10.96;100.00;101751.13;5094983;28;20085;-38